メインページ
METAR-TAF:

METAR-TAF

空港 :

ノイバイ国際空港

ハノイ, ベトナム

緯度: 21-01N, 経度: 105-48E, 海抜: 6m

現時点の気象観測

当レポートは16分前の03:00(UTC)に作成
南東の風 9kt
気温 30°C
湿度 84%
気圧 1009 hPa
視程10km以上
高度1600ftの雲は散在している
高度2500ftの千切れ雲あり

METAR: VVNB 210300Z 13009KT 9999 SCT016 BKN025 30/27 Q1009 NOSIG

時間: 10:16 (03:16 UTC)

予報

当レポートは4時間16分前の23:00(UTC)に作成
予報は21日の 00時(UTC)から 21日の 24時(UTC)まで有効
東/南東の風 8kt
視程10km以上
高度1700ftの雲は散在している
確率 30% :
21日の 02時(UTC)から 21日の 06時(UTC)まで一時的に
視程: 4000m
高度800ftの雲は散在している
高度2700ftの雲はほとんどない, 積乱雲.
高度5000ftの千切れ雲あり
激しい雷雨, 雨
21日の 10時(UTC)から 21日の 14時(UTC)まで一時的に
視程: 4000m
高度1000ftの雲は散在している
高度2700ftの雲はほとんどない, 積乱雲.
高度5000ftの千切れ雲あり
激しい雷雨, 雨

TAF: VVNB 202300Z 2100/2124 11008KT 9999 SCT017 PROB30 TEMPO 2102/2106 4000 TSRA SCT008 FEW027CB BKN050 TEMPO 2110/2114 4000 TSRA SCT010 FEW027CB BKN050

4,000以上の空港の気象観測と天気予報(METAR報とTAF報)

利用可能な観測所は地図上に黄色い丸と赤い丸で示す。

丸の上にカーソルを重ねると観測所名を参照できる。

次にクリックすると気象観測と天気予報を参照できる。

マップの切り替え:黒色「×」印の緑ボタンをクリックして拡大、「-」印の緑ボタンをクリックして縮小、緑色の三角印をクリックして隣りの地図に切り替え


METAR-TAF: